createdAt,value
2023-05-05T00:00:24.133Z,3127.00
2023-05-05T00:01:24.158Z,3119.00
2023-05-05T00:02:24.269Z,3118.00
2023-05-05T00:03:24.295Z,3121.00
2023-05-05T00:04:24.323Z,3113.00
2023-05-05T00:05:24.268Z,3122.00
2023-05-05T00:06:24.343Z,3127.00
2023-05-05T00:07:24.317Z,3112.00
2023-05-05T00:08:24.373Z,3107.00
2023-05-05T00:09:24.403Z,3106.00
2023-05-05T00:10:24.438Z,3099.00
2023-05-05T00:11:24.461Z,3093.00
2023-05-05T00:12:24.512Z,3109.00
2023-05-05T00:13:24.570Z,3086.00
2023-05-05T00:14:24.580Z,3090.00
2023-05-05T00:15:24.618Z,3094.00
2023-05-05T00:16:24.673Z,3091.00
2023-05-05T00:17:24.708Z,3094.00
2023-05-05T00:18:24.728Z,3072.00
2023-05-05T00:19:24.713Z,3094.00
2023-05-05T00:20:24.764Z,3078.00
2023-05-05T00:21:24.812Z,3078.00
2023-05-05T00:22:24.850Z,3066.00
2023-05-05T00:23:24.890Z,3077.00
2023-05-05T00:24:24.888Z,3069.00
2023-05-05T00:25:24.916Z,3070.00
2023-05-05T00:26:24.962Z,3064.00
2023-05-05T00:27:25.021Z,3050.00
2023-05-05T00:28:25.062Z,3066.00
2023-05-05T00:29:25.102Z,3063.00
2023-05-05T00:30:25.128Z,3048.00
2023-05-05T00:31:25.189Z,3049.00
2023-05-05T00:32:25.216Z,3047.00
2023-05-05T00:33:25.211Z,3046.00
2023-05-05T00:34:25.270Z,3052.00
2023-05-05T00:35:25.268Z,3043.00
2023-05-05T00:36:25.320Z,3051.00
2023-05-05T00:37:25.372Z,3041.00
2023-05-05T00:38:25.359Z,3040.00
2023-05-05T00:39:25.407Z,3036.00
2023-05-05T00:40:25.457Z,3033.00
2023-05-05T00:41:25.480Z,3016.00
2023-05-05T00:42:25.943Z,3025.00
2023-05-05T00:43:25.526Z,3022.00
2023-05-05T00:44:25.566Z,3027.00
2023-05-05T00:45:25.597Z,3026.00
2023-05-05T00:46:25.681Z,3030.00
2023-05-05T00:47:25.718Z,3013.00
2023-05-05T00:48:25.718Z,3018.00
2023-05-05T00:49:25.755Z,3006.00
2023-05-05T00:50:25.798Z,3011.00
2023-05-05T00:51:25.828Z,3014.00
2023-05-05T00:52:25.879Z,3002.00
2023-05-05T00:53:25.918Z,3009.00
2023-05-05T00:54:25.915Z,2999.00
2023-05-05T00:55:25.981Z,2998.00
2023-05-05T00:56:25.984Z,2994.00
2023-05-05T00:57:26.052Z,2995.00
2023-05-05T00:58:26.069Z,2993.00
2023-05-05T00:59:26.082Z,2987.00
2023-05-05T01:00:26.139Z,2985.00
2023-05-05T01:01:26.151Z,2991.00
2023-05-05T01:02:26.338Z,2987.00
2023-05-05T01:03:26.330Z,2980.00
2023-05-05T01:04:26.997Z,2970.00
2023-05-05T01:05:26.303Z,2976.00
2023-05-05T01:06:26.347Z,2973.00
2023-05-05T01:07:26.387Z,2974.00
2023-05-05T01:08:26.400Z,2969.00
2023-05-05T01:09:26.459Z,2961.00
2023-05-05T01:10:26.718Z,2968.00
2023-05-05T01:11:26.483Z,2948.00
2023-05-05T01:12:26.509Z,2953.00
2023-05-05T01:13:26.613Z,2957.00
2023-05-05T01:14:26.568Z,2950.00
2023-05-05T01:15:26.632Z,2955.00
2023-05-05T01:16:26.654Z,2951.00
2023-05-05T01:17:26.744Z,2942.00
2023-05-05T01:18:26.697Z,2950.00
2023-05-05T01:19:26.738Z,2940.00
2023-05-05T01:20:26.778Z,2939.00
2023-05-05T01:21:26.799Z,2933.00
2023-05-05T01:22:26.853Z,2928.00
2023-05-05T01:23:26.876Z,2921.00
2023-05-05T01:24:26.877Z,2939.00
2023-05-05T01:25:26.937Z,2928.00
2023-05-05T01:26:26.968Z,2927.00
2023-05-05T01:27:27.011Z,2910.00
2023-05-05T01:28:27.041Z,2917.00
2023-05-05T01:29:27.049Z,2929.00
2023-05-05T01:30:27.077Z,2919.00
2023-05-05T01:31:27.180Z,2911.00
2023-05-05T01:32:27.188Z,2914.00
2023-05-05T01:33:27.208Z,2924.00
2023-05-05T01:34:27.232Z,2900.00
2023-05-05T01:35:27.223Z,2909.00
2023-05-05T01:36:27.296Z,2895.00
2023-05-05T01:37:27.312Z,2899.00
2023-05-05T01:38:27.348Z,2894.00
2023-05-05T01:39:27.365Z,2892.00
2023-05-05T01:40:27.424Z,2901.00
2023-05-05T01:41:27.445Z,2883.00
2023-05-05T01:42:27.482Z,2878.00
2023-05-05T01:43:27.484Z,2877.00
2023-05-05T01:44:27.550Z,2883.00
2023-05-05T01:45:27.592Z,2880.00
2023-05-05T01:46:27.609Z,2873.00
2023-05-05T01:47:27.667Z,2888.00
2023-05-05T01:48:27.674Z,2880.00
2023-05-05T01:49:27.705Z,2870.00
2023-05-05T01:50:27.735Z,2868.00
2023-05-05T01:51:27.819Z,2861.00
2023-05-05T01:52:27.810Z,2859.00
2023-05-05T01:53:27.845Z,2869.00
2023-05-05T01:54:27.850Z,2865.00
2023-05-05T01:55:27.888Z,2866.00
2023-05-05T01:56:27.912Z,2860.00
2023-05-05T01:57:27.978Z,2847.00
2023-05-05T01:58:28.004Z,2841.00
2023-05-05T01:59:28.030Z,2854.00
2023-05-05T02:00:28.037Z,2848.00
2023-05-05T02:01:28.113Z,2831.00
2023-05-05T02:02:28.553Z,2844.00
2023-05-05T02:03:28.150Z,2838.00
2023-05-05T02:04:28.166Z,2849.00
2023-05-05T02:05:28.216Z,2841.00
2023-05-05T02:06:28.228Z,2830.00
2023-05-05T02:07:28.270Z,2833.00
2023-05-05T02:08:28.312Z,2832.00
2023-05-05T02:09:28.353Z,2821.00
2023-05-05T02:10:28.374Z,2819.00
2023-05-05T02:11:28.383Z,2828.00
2023-05-05T02:12:28.448Z,2817.00
2023-05-05T02:13:28.486Z,2822.00
2023-05-05T02:14:28.464Z,2823.00
2023-05-05T02:15:28.533Z,2808.00
2023-05-05T02:16:28.554Z,2805.00
2023-05-05T02:17:29.030Z,2817.00
2023-05-05T02:18:28.689Z,2793.00
2023-05-05T02:19:28.628Z,2805.00
2023-05-05T02:20:28.724Z,2793.00
2023-05-05T02:21:28.715Z,2797.00
2023-05-05T02:22:28.773Z,2807.00
2023-05-05T02:23:28.790Z,2800.00
2023-05-05T02:24:28.809Z,2791.00
2023-05-05T02:25:28.829Z,2811.00
2023-05-05T02:26:28.908Z,2788.00
2023-05-05T02:27:28.932Z,2775.00
2023-05-05T02:28:28.982Z,2792.00
2023-05-05T02:29:28.980Z,2780.00
2023-05-05T02:30:29.007Z,2787.00
2023-05-05T02:31:29.157Z,2779.00
2023-05-05T02:32:29.092Z,2775.00
2023-05-05T02:33:29.120Z,2766.00
2023-05-05T02:34:29.129Z,2780.00
2023-05-05T02:35:29.137Z,2770.00
2023-05-05T02:36:29.205Z,2756.00
2023-05-05T02:37:29.218Z,2761.00
2023-05-05T02:38:29.273Z,2764.00
2023-05-05T02:39:29.274Z,2764.00
2023-05-05T02:40:29.330Z,2758.00
2023-05-05T02:41:29.340Z,2752.00
2023-05-05T02:42:29.400Z,2753.00
2023-05-05T02:43:29.431Z,2745.00
2023-05-05T02:44:29.457Z,2745.00
2023-05-05T02:45:29.460Z,2744.00
2023-05-05T02:46:29.541Z,2741.00
2023-05-05T02:47:29.557Z,2735.00
2023-05-05T02:48:29.959Z,2736.00
2023-05-05T02:49:29.592Z,2728.00
2023-05-05T02:50:29.656Z,2733.00
2023-05-05T02:51:29.680Z,2739.00
2023-05-05T02:52:29.724Z,2744.00
2023-05-05T02:53:29.754Z,2727.00
2023-05-05T02:54:29.761Z,2724.00
2023-05-05T02:55:29.837Z,2729.00
2023-05-05T02:56:29.856Z,2731.00
2023-05-05T02:57:29.870Z,2726.00
2023-05-05T02:58:29.904Z,2715.00
2023-05-05T02:59:29.948Z,2707.00
2023-05-05T03:00:29.960Z,2711.00
2023-05-05T03:01:30.034Z,2700.00
2023-05-05T03:02:30.086Z,2705.00
2023-05-05T03:03:30.602Z,2714.00
2023-05-05T03:04:31.001Z,2693.00
2023-05-05T03:05:30.127Z,2692.00
2023-05-05T03:06:30.172Z,2698.00
2023-05-05T03:07:30.206Z,2701.00
2023-05-05T03:08:30.272Z,2704.00
2023-05-05T03:09:30.282Z,2705.00
2023-05-05T03:10:30.313Z,2679.00
2023-05-05T03:11:30.327Z,2692.00
2023-05-05T03:12:30.385Z,2694.00
2023-05-05T03:13:30.414Z,2678.00
2023-05-05T03:14:33.266Z,2677.00
2023-05-05T03:15:30.427Z,2699.00
2023-05-05T03:16:30.466Z,2692.00
2023-05-05T03:17:30.448Z,2681.00
2023-05-05T03:18:30.405Z,2673.00
2023-05-05T03:19:30.420Z,2675.00
2023-05-05T03:20:30.388Z,2665.00
2023-05-05T03:21:30.390Z,2662.00
2023-05-05T03:22:30.392Z,2659.00
2023-05-05T03:23:30.396Z,2678.00
2023-05-05T03:24:30.390Z,2661.00
2023-05-05T03:25:30.361Z,2657.00
2023-05-05T03:26:30.360Z,2662.00
2023-05-05T03:27:30.384Z,2654.00
2023-05-05T03:28:30.335Z,2659.00
2023-05-05T03:29:30.369Z,2657.00
2023-05-05T03:30:30.327Z,2647.00
2023-05-05T03:31:30.411Z,2654.00
2023-05-05T03:32:30.400Z,2650.00
2023-05-05T03:33:30.300Z,2652.00
2023-05-05T03:34:30.320Z,2645.00
2023-05-05T03:35:30.293Z,2641.00
2023-05-05T03:36:30.307Z,2633.00
2023-05-05T03:37:30.289Z,2643.00
2023-05-05T03:38:30.274Z,2637.00
2023-05-05T03:39:30.292Z,2630.00
2023-05-05T03:40:42.971Z,2621.00
2023-05-05T03:41:31.259Z,2623.00
2023-05-05T03:42:30.241Z,2625.00
2023-05-05T03:43:30.243Z,2629.00
2023-05-05T03:44:30.218Z,2630.00
2023-05-05T03:45:30.241Z,2623.00
2023-05-05T03:46:30.215Z,2629.00
2023-05-05T03:47:30.274Z,2619.00
2023-05-05T03:48:30.217Z,2623.00
2023-05-05T03:49:30.188Z,2612.00
2023-05-05T03:50:30.192Z,2621.00
2023-05-05T03:51:30.205Z,2605.00
2023-05-05T03:52:30.174Z,2615.00
2023-05-05T03:53:30.240Z,2614.00
2023-05-05T03:54:30.249Z,2604.00
2023-05-05T03:55:30.289Z,2609.00
2023-05-05T03:56:30.342Z,2605.00
2023-05-05T03:57:30.382Z,2615.00
2023-05-05T03:58:30.403Z,2605.00
2023-05-05T03:59:30.438Z,2603.00
2023-05-05T04:00:30.461Z,2604.00
2023-05-05T04:01:30.505Z,2590.00
2023-05-05T04:02:30.607Z,2584.00
2023-05-05T04:03:30.764Z,2592.00
2023-05-05T04:04:30.659Z,2578.00
2023-05-05T04:05:30.643Z,2590.00
2023-05-05T04:06:30.708Z,2576.00
2023-05-05T04:07:30.756Z,2578.00
2023-05-05T04:08:31.012Z,2573.00
2023-05-05T04:09:30.834Z,2580.00
2023-05-05T04:10:30.849Z,2572.00
2023-05-05T04:11:30.885Z,2572.00
2023-05-05T04:12:30.974Z,2557.00
2023-05-05T04:13:30.976Z,2560.00
2023-05-05T04:14:31.025Z,2563.00
2023-05-05T04:15:31.064Z,2556.00
2023-05-05T04:16:31.192Z,2561.00
2023-05-05T04:17:31.168Z,2559.00
2023-05-05T04:18:31.185Z,2550.00
2023-05-05T04:19:31.183Z,2572.00
2023-05-05T04:20:31.217Z,2546.00
2023-05-05T04:21:31.263Z,2551.00
2023-05-05T04:22:31.315Z,2552.00
2023-05-05T04:23:31.344Z,2542.00
2023-05-05T04:24:31.393Z,2532.00
2023-05-05T04:25:31.427Z,2533.00
2023-05-05T04:26:31.466Z,2531.00
2023-05-05T04:27:31.510Z,2545.00
2023-05-05T04:28:31.517Z,2542.00
2023-05-05T04:29:31.562Z,2543.00
2023-05-05T04:30:31.629Z,2545.00
2023-05-05T04:31:31.660Z,2538.00
2023-05-05T04:32:31.704Z,2513.00
2023-05-05T04:33:31.703Z,2536.00
2023-05-05T04:34:31.726Z,2522.00
2023-05-05T04:35:31.766Z,2528.00
2023-05-05T04:36:31.781Z,2524.00
2023-05-05T04:37:31.847Z,2521.00
2023-05-05T04:38:31.874Z,2509.00
2023-05-05T04:39:31.915Z,2520.00
2023-05-05T04:40:31.934Z,2506.00
2023-05-05T04:41:31.972Z,2519.00
2023-05-05T04:42:32.027Z,2516.00
2023-05-05T04:43:32.024Z,2499.00
2023-05-05T04:44:32.079Z,2494.00
2023-05-05T04:45:32.157Z,2495.00
2023-05-05T04:46:32.175Z,2501.00
2023-05-05T04:47:32.225Z,2503.00
2023-05-05T04:48:32.280Z,2486.00
2023-05-05T04:49:32.287Z,2492.00
2023-05-05T04:50:32.337Z,2496.00
2023-05-05T04:51:32.356Z,2477.00
2023-05-05T04:52:32.387Z,2482.00
2023-05-05T04:53:32.421Z,2487.00
2023-05-05T04:54:32.456Z,2476.00
2023-05-05T04:55:32.484Z,2491.00
2023-05-05T04:56:32.521Z,2473.00
2023-05-05T04:57:32.564Z,2487.00
2023-05-05T04:58:32.596Z,2477.00
2023-05-05T04:59:32.656Z,2480.00
2023-05-05T05:00:32.665Z,2470.00
2023-05-05T05:01:32.667Z,2481.00
2023-05-05T05:02:32.777Z,2471.00
2023-05-05T05:03:32.887Z,2466.00
2023-05-05T05:04:32.756Z,2460.00
2023-05-05T05:05:32.923Z,2454.00
2023-05-05T05:06:32.889Z,2455.00
2023-05-05T05:07:32.940Z,2461.00
2023-05-05T05:08:32.941Z,2450.00
2023-05-05T05:09:32.966Z,2433.00
2023-05-05T05:10:33.060Z,2440.00
2023-05-05T05:11:33.049Z,2454.00
2023-05-05T05:12:33.097Z,2447.00
2023-05-05T05:13:33.105Z,2451.00
2023-05-05T05:14:33.155Z,2438.00
2023-05-05T05:15:33.138Z,2440.00
2023-05-05T05:16:33.224Z,2444.00
2023-05-05T05:17:33.244Z,2438.00
2023-05-05T05:18:33.262Z,2426.00
2023-05-05T05:19:33.303Z,2430.00
2023-05-05T05:20:33.322Z,2438.00
2023-05-05T05:21:33.360Z,2427.00
2023-05-05T05:22:33.379Z,2416.00
2023-05-05T05:23:33.481Z,2422.00
2023-05-05T05:24:33.479Z,2420.00
2023-05-05T05:25:33.526Z,2420.00
2023-05-05T05:26:33.543Z,2416.00
2023-05-05T05:27:33.609Z,2421.00
2023-05-05T05:28:34.006Z,2419.00
2023-05-05T05:29:33.663Z,2404.00
2023-05-05T05:30:33.692Z,2409.00
2023-05-05T05:31:33.743Z,2405.00
2023-05-05T05:32:33.766Z,2407.00
2023-05-05T05:33:34.029Z,2397.00
2023-05-05T05:34:33.802Z,2403.00
2023-05-05T05:35:33.818Z,2396.00
2023-05-05T05:36:33.885Z,2411.00
2023-05-05T05:37:33.884Z,2399.00
2023-05-05T05:38:34.012Z,2407.00
2023-05-05T05:39:33.974Z,2402.00
2023-05-05T05:40:33.996Z,2394.00
2023-05-05T05:41:34.021Z,2399.00
2023-05-05T05:42:34.041Z,2389.00
2023-05-05T05:43:34.093Z,2394.00
2023-05-05T05:44:34.056Z,2394.00
2023-05-05T05:45:34.091Z,2384.00
2023-05-05T05:46:34.218Z,2387.00
2023-05-05T05:47:34.218Z,2382.00
2023-05-05T05:48:34.214Z,2387.00
2023-05-05T05:49:34.238Z,2383.00
2023-05-05T05:50:34.272Z,2371.00
2023-05-05T05:51:34.262Z,2365.00
2023-05-05T05:52:34.295Z,2400.00
2023-05-05T05:53:34.344Z,2406.00
2023-05-05T05:54:34.364Z,2425.00
2023-05-05T05:55:34.332Z,2416.00
2023-05-05T05:56:34.332Z,2432.00
2023-05-05T05:57:34.374Z,2463.00
2023-05-05T05:58:34.524Z,2491.00
2023-05-05T05:59:34.353Z,2501.00
2023-05-05T06:00:34.349Z,2529.00
2023-05-05T06:01:34.386Z,2517.00
2023-05-05T06:02:34.438Z,2544.00
2023-05-05T06:03:34.620Z,2569.00
2023-05-05T06:04:34.562Z,2572.00
2023-05-05T06:05:34.525Z,2594.00
2023-05-05T06:06:34.575Z,2617.00
2023-05-05T06:07:34.603Z,2626.00
2023-05-05T06:08:35.039Z,2642.00
2023-05-05T06:09:34.719Z,2672.00
2023-05-05T06:10:35.127Z,2609.00
2023-05-05T06:11:34.838Z,2630.00
2023-05-05T06:12:34.980Z,2687.00
2023-05-05T06:13:34.957Z,2700.00
2023-05-05T06:14:34.996Z,2697.00
2023-05-05T06:15:35.046Z,2709.00
2023-05-05T06:16:35.154Z,2725.00
2023-05-05T06:17:35.118Z,2741.00
2023-05-05T06:18:35.194Z,2734.00
2023-05-05T06:19:35.206Z,2742.00
2023-05-05T06:20:35.233Z,2745.00
2023-05-05T06:21:35.273Z,2770.00
2023-05-05T06:22:35.291Z,2769.00
2023-05-05T06:23:35.541Z,2776.00
2023-05-05T06:24:35.340Z,2801.00
2023-05-05T06:25:35.387Z,2797.00
2023-05-05T06:26:35.351Z,2802.00
2023-05-05T06:27:35.401Z,2800.00
2023-05-05T06:28:35.427Z,2808.00
2023-05-05T06:29:35.432Z,2797.00
2023-05-05T06:30:35.440Z,2808.00
2023-05-05T06:31:35.468Z,2833.00
2023-05-05T06:32:35.443Z,2958.00
2023-05-05T06:33:35.587Z,2920.00
2023-05-05T06:34:35.445Z,2884.00
2023-05-05T06:35:35.436Z,2863.00
2023-05-05T06:36:35.462Z,2862.00
2023-05-05T06:37:35.403Z,2867.00
2023-05-05T06:38:35.438Z,2855.00
2023-05-05T06:39:35.415Z,2856.00
2023-05-05T06:40:35.482Z,2845.00
2023-05-05T06:41:35.514Z,2854.00
2023-05-05T06:42:35.572Z,2861.00
2023-05-05T06:43:35.638Z,2859.00
2023-05-05T06:44:35.752Z,2866.00
2023-05-05T06:45:35.757Z,2875.00
2023-05-05T06:46:35.914Z,2868.00
2023-05-05T06:47:35.903Z,2866.00
2023-05-05T06:48:35.941Z,2856.00
2023-05-05T06:49:36.020Z,2855.00
2023-05-05T06:50:36.076Z,2844.00
2023-05-05T06:51:36.103Z,2844.00
2023-05-05T06:52:36.139Z,2860.00
2023-05-05T06:53:36.266Z,2874.00
2023-05-05T06:54:36.275Z,2879.00
2023-05-05T06:55:36.331Z,2871.00
2023-05-05T06:56:36.397Z,2874.00
2023-05-05T06:57:36.461Z,2876.00
2023-05-05T06:58:36.564Z,2874.00
2023-05-05T06:59:36.524Z,2876.00
2023-05-05T07:00:36.636Z,2869.00
2023-05-05T07:01:36.657Z,2863.00
2023-05-05T07:02:36.749Z,2865.00
2023-05-05T07:03:37.087Z,2860.00
2023-05-05T07:04:36.804Z,2857.00
2023-05-05T07:05:36.919Z,2847.00
2023-05-05T07:06:36.979Z,2842.00
2023-05-05T07:07:37.010Z,2843.00
2023-05-05T07:08:37.099Z,2832.00
2023-05-05T07:09:37.297Z,2821.00
2023-05-05T07:10:39.106Z,2805.00
2023-05-05T07:11:37.243Z,2815.00
2023-05-05T07:12:37.347Z,2802.00
2023-05-05T07:13:37.542Z,2798.00
2023-05-05T07:14:37.438Z,2789.00
2023-05-05T07:15:37.440Z,2793.00
2023-05-05T07:16:37.564Z,2777.00
2023-05-05T07:17:37.587Z,2772.00
2023-05-05T07:18:37.637Z,2776.00
2023-05-05T07:19:37.635Z,2769.00
2023-05-05T07:20:37.660Z,2773.00
2023-05-05T07:21:37.694Z,2750.00
2023-05-05T07:22:37.764Z,2751.00
2023-05-05T07:23:37.756Z,2751.00
2023-05-05T07:24:37.812Z,2746.00
2023-05-05T07:25:37.883Z,2729.00
2023-05-05T07:26:37.819Z,2730.00
2023-05-05T07:27:37.840Z,2720.00
2023-05-05T07:28:37.902Z,2717.00
2023-05-05T07:29:37.908Z,2721.00
2023-05-05T07:30:37.941Z,2707.00
2023-05-05T07:31:38.069Z,2709.00
2023-05-05T07:32:38.002Z,2701.00
2023-05-05T07:33:38.004Z,2692.00
2023-05-05T07:34:38.030Z,2697.00
2023-05-05T07:35:38.049Z,2673.00
2023-05-05T07:36:38.057Z,2679.00
2023-05-05T07:37:38.169Z,2673.00
2023-05-05T07:38:38.596Z,2670.00
2023-05-05T07:39:38.121Z,2654.00
2023-05-05T07:40:38.156Z,2657.00
2023-05-05T07:41:38.315Z,2648.00
2023-05-05T07:42:38.248Z,2649.00
2023-05-05T07:43:39.347Z,2646.00
2023-05-05T07:44:38.321Z,2645.00
2023-05-05T07:45:38.380Z,2631.00
2023-05-05T07:46:38.418Z,2635.00
2023-05-05T07:47:38.428Z,2634.00
2023-05-05T07:48:38.456Z,2687.00
2023-05-05T07:49:38.394Z,2726.00
2023-05-05T07:50:38.463Z,2758.00
2023-05-05T07:51:38.450Z,2696.00
2023-05-05T07:52:48.390Z,2695.00
2023-05-05T07:53:39.504Z,2696.00
2023-05-05T07:54:38.492Z,2698.00
2023-05-05T07:55:38.498Z,2708.00
2023-05-05T07:56:38.491Z,2736.00
2023-05-05T07:57:38.545Z,2773.00
2023-05-05T07:58:38.527Z,2808.00
2023-05-05T07:59:38.480Z,2822.00
2023-05-05T08:00:38.470Z,2822.00
2023-05-05T08:01:38.466Z,2823.00
2023-05-05T08:02:38.514Z,2815.00
2023-05-05T08:03:38.684Z,2774.00
2023-05-05T08:04:38.656Z,2751.00
2023-05-05T08:05:38.456Z,2710.00
2023-05-05T08:06:38.472Z,2675.00
2023-05-05T08:07:38.555Z,2650.00
2023-05-05T08:08:38.547Z,2620.00
2023-05-05T08:09:38.570Z,2621.00
2023-05-05T08:10:38.625Z,2590.00
2023-05-05T08:11:38.605Z,2578.00
2023-05-05T08:12:38.661Z,2585.00
2023-05-05T08:13:38.804Z,2552.00
2023-05-05T08:14:38.668Z,2523.00
2023-05-05T08:15:38.733Z,2505.00
2023-05-05T08:16:38.788Z,2472.00
2023-05-05T08:17:38.873Z,2453.00
2023-05-05T08:18:38.812Z,2412.00
2023-05-05T08:19:38.805Z,2345.00
2023-05-05T08:20:38.838Z,2323.00
2023-05-05T08:21:38.837Z,2325.00
2023-05-05T08:22:38.873Z,2322.00
2023-05-05T08:23:38.908Z,2335.00
2023-05-05T08:24:39.105Z,2352.00
2023-05-05T08:25:38.915Z,2370.00
2023-05-05T08:26:38.971Z,2390.00
2023-05-05T08:27:38.975Z,2418.00
2023-05-05T08:28:39.009Z,2428.00
2023-05-05T08:29:39.158Z,2453.00
2023-05-05T08:30:39.077Z,2459.00
2023-05-05T08:31:39.179Z,2459.00
2023-05-05T08:32:39.184Z,2453.00
2023-05-05T08:33:39.141Z,2440.00
2023-05-05T08:34:39.589Z,2440.00
2023-05-05T08:35:39.188Z,2441.00
2023-05-05T08:36:39.198Z,2430.00
2023-05-05T08:37:39.257Z,2438.00
2023-05-05T08:38:39.315Z,2428.00
2023-05-05T08:39:39.372Z,2425.00
2023-05-05T08:40:39.409Z,2403.00
2023-05-05T08:41:39.513Z,2380.00
2023-05-05T08:42:39.779Z,2377.00
2023-05-05T08:43:39.560Z,2350.00
2023-05-05T08:44:39.612Z,2328.00
2023-05-05T08:45:39.688Z,2315.00
2023-05-05T08:46:39.731Z,2322.00
2023-05-05T08:47:39.786Z,2314.00
2023-05-05T08:48:39.746Z,2322.00
2023-05-05T08:49:39.757Z,2329.00
2023-05-05T08:50:39.760Z,2355.00
2023-05-05T08:51:39.767Z,2334.00
2023-05-05T08:52:39.839Z,2324.00
2023-05-05T08:53:39.870Z,2335.00
2023-05-05T08:54:40.104Z,2345.00
2023-05-05T08:55:39.894Z,2344.00
2023-05-05T08:56:39.926Z,2346.00
2023-05-05T08:57:39.960Z,2343.00
2023-05-05T08:58:39.976Z,2349.00
2023-05-05T08:59:40.040Z,2356.00
2023-05-05T09:00:40.106Z,2356.00
2023-05-05T09:01:40.352Z,2366.00
2023-05-05T09:02:40.129Z,2354.00
2023-05-05T09:03:40.096Z,2361.00
2023-05-05T09:04:40.621Z,2354.00
2023-05-05T09:05:40.243Z,2365.00
2023-05-05T09:06:40.244Z,2371.00
2023-05-05T09:07:40.285Z,2382.00
2023-05-05T09:08:40.356Z,2355.00
2023-05-05T09:09:40.454Z,2386.00
2023-05-05T09:10:40.474Z,2371.00
2023-05-05T09:11:40.457Z,2375.00
2023-05-05T09:12:40.491Z,2386.00
2023-05-05T09:13:40.447Z,2398.00
2023-05-05T09:14:40.626Z,2347.00
2023-05-05T09:15:40.447Z,2363.00
2023-05-05T09:16:40.542Z,2357.00
2023-05-05T09:17:40.647Z,2355.00
2023-05-05T09:18:40.484Z,2384.00
2023-05-05T09:19:40.503Z,2374.00
2023-05-05T09:20:40.500Z,2367.00
2023-05-05T09:21:40.531Z,2385.00
2023-05-05T09:22:40.566Z,2373.00
2023-05-05T09:23:40.573Z,2368.00
2023-05-05T09:24:40.599Z,2384.00
2023-05-05T09:25:40.610Z,2392.00
2023-05-05T09:26:40.596Z,2391.00
2023-05-05T09:27:40.651Z,2388.00
2023-05-05T09:28:40.650Z,2368.00
2023-05-05T09:29:40.685Z,2387.00
2023-05-05T09:30:40.782Z,2366.00
2023-05-05T09:31:40.748Z,2352.00
2023-05-05T09:32:40.800Z,2370.00
2023-05-05T09:33:40.845Z,2372.00
2023-05-05T09:34:41.132Z,2381.00
2023-05-05T09:35:40.857Z,2376.00
2023-05-05T09:36:40.906Z,2379.00
2023-05-05T09:37:40.919Z,2366.00
2023-05-05T09:38:40.929Z,2378.00
2023-05-05T09:39:41.139Z,2379.00
2023-05-05T09:40:40.971Z,2369.00
2023-05-05T09:41:40.982Z,2353.00
2023-05-05T09:42:41.025Z,2350.00
2023-05-05T09:43:41.039Z,2357.00
2023-05-05T09:44:41.119Z,2361.00
2023-05-05T09:45:41.077Z,2355.00
2023-05-05T09:46:41.161Z,2369.00
2023-05-05T09:47:41.225Z,2335.00
2023-05-05T09:48:41.138Z,2349.00
2023-05-05T09:49:41.703Z,2331.00
2023-05-05T09:50:41.202Z,2333.00
2023-05-05T09:51:41.241Z,2370.00
2023-05-05T09:52:41.275Z,2427.00
2023-05-05T09:53:41.270Z,2495.00
2023-05-05T09:54:41.309Z,2337.00
2023-05-05T09:55:41.328Z,1982.00
2023-05-05T09:56:41.293Z,2065.00
2023-05-05T09:57:41.335Z,2085.00
2023-05-05T09:58:41.350Z,1914.00
2023-05-05T09:59:41.304Z,1920.00
2023-05-05T10:00:41.360Z,1910.00
2023-05-05T10:01:41.439Z,1804.00
2023-05-05T10:02:41.438Z,1546.00
2023-05-05T10:03:41.509Z,1552.00
2023-05-05T10:04:41.573Z,1267.00
2023-05-05T10:05:41.605Z,1300.00
2023-05-05T10:06:41.732Z,1523.00
2023-05-05T10:07:41.805Z,1423.00
2023-05-05T10:08:41.816Z,1654.00
2023-05-05T10:09:41.902Z,1587.00
2023-05-05T10:10:41.909Z,1469.00
2023-05-05T10:11:42.025Z,1412.00
2023-05-05T10:12:42.047Z,1242.00
2023-05-05T10:13:42.267Z,1362.00
2023-05-05T10:14:42.601Z,1472.00
2023-05-05T10:15:42.221Z,1281.00
2023-05-05T10:16:42.263Z,1395.00
2023-05-05T10:17:50.841Z,1345.00
2023-05-05T10:18:43.270Z,1182.00
2023-05-05T10:19:42.637Z,1041.00
2023-05-05T10:20:42.215Z,909.00
2023-05-05T10:21:42.387Z,988.00
2023-05-05T10:22:42.188Z,1004.00
2023-05-05T10:23:42.205Z,1012.00
2023-05-05T10:24:42.200Z,1208.00
2023-05-05T10:25:42.210Z,673.00
2023-05-05T10:26:42.174Z,1087.00
2023-05-05T10:27:42.202Z,1039.00
2023-05-05T10:28:42.197Z,941.00
2023-05-05T10:29:42.655Z,1056.00
2023-05-05T10:30:42.264Z,950.00
2023-05-05T10:31:42.290Z,763.00
2023-05-05T10:33:42.377Z,1036.00
2023-05-05T10:34:42.636Z,682.00
2023-05-05T10:35:42.257Z,735.00
2023-05-05T10:36:42.297Z,917.00
2023-05-05T10:37:42.275Z,860.00
2023-05-05T10:38:42.261Z,799.00
2023-05-05T10:39:42.620Z,850.00
2023-05-05T10:40:42.264Z,589.00
2023-05-05T10:41:42.225Z,603.00
2023-05-05T10:42:42.358Z,917.00
2023-05-05T10:43:42.249Z,1081.00
2023-05-05T10:44:42.659Z,1313.00
2023-05-05T10:45:42.361Z,1453.00
2023-05-05T10:46:42.275Z,1454.00
2023-05-05T10:47:42.227Z,1444.00
2023-05-05T10:48:42.214Z,1316.00
2023-05-05T10:49:42.672Z,1320.00
2023-05-05T10:50:42.217Z,1248.00
2023-05-05T10:51:42.171Z,1163.00
2023-05-05T10:52:42.153Z,965.00
2023-05-05T10:53:42.235Z,1103.00
2023-05-05T10:54:42.146Z,1152.00
2023-05-05T10:55:42.157Z,1226.00
2023-05-05T10:56:42.124Z,1178.00
2023-05-05T10:57:42.141Z,1183.00
2023-05-05T10:58:58.307Z,1191.00
2023-05-05T10:59:43.172Z,1192.00
2023-05-05T11:00:42.092Z,1215.00
2023-05-05T11:01:42.107Z,1242.00
2023-05-05T11:02:42.165Z,1312.00
2023-05-05T11:03:42.082Z,1414.00
2023-05-05T11:04:42.091Z,1393.00
2023-05-05T11:05:42.104Z,1397.00
2023-05-05T11:06:42.064Z,1465.00
2023-05-05T11:07:42.056Z,1466.00
2023-05-05T11:08:42.050Z,1495.00
2023-05-05T11:09:42.133Z,1503.00
2023-05-05T11:10:42.131Z,1532.00
2023-05-05T11:11:42.225Z,1549.00
2023-05-05T11:12:42.224Z,1582.00
2023-05-05T11:13:42.253Z,1605.00
2023-05-05T11:14:42.625Z,1621.00
2023-05-05T11:15:42.320Z,1688.00
2023-05-05T11:16:42.432Z,1677.00
2023-05-05T11:17:42.452Z,1709.00
2023-05-05T11:18:42.474Z,1728.00
2023-05-05T11:19:42.666Z,1726.00
2023-05-05T11:20:42.438Z,1782.00
2023-05-05T11:21:42.446Z,1741.00
2023-05-05T11:22:42.466Z,1821.00
2023-05-05T11:23:42.445Z,1791.00
2023-05-05T11:24:42.667Z,1798.00
2023-05-05T11:25:42.511Z,1840.00
2023-05-05T11:26:42.457Z,1840.00
2023-05-05T11:27:42.461Z,1853.00
2023-05-05T11:28:42.451Z,1848.00
2023-05-05T11:29:42.443Z,1882.00
2023-05-05T11:30:42.515Z,1888.00
2023-05-05T11:31:42.496Z,1869.00
2023-05-05T11:32:42.514Z,1912.00
2023-05-05T11:33:42.442Z,1925.00
2023-05-05T11:34:42.462Z,1954.00
2023-05-05T11:35:42.467Z,1927.00
2023-05-05T11:36:42.461Z,1949.00
2023-05-05T11:37:42.490Z,1957.00
2023-05-05T11:38:42.501Z,1951.00
2023-05-05T11:39:42.495Z,1968.00
2023-05-05T11:40:42.509Z,1971.00
2023-05-05T11:41:42.573Z,1972.00
2023-05-05T11:42:42.556Z,1975.00
2023-05-05T11:43:42.560Z,1971.00
2023-05-05T11:44:42.605Z,1985.00
2023-05-05T11:45:42.602Z,1979.00
2023-05-05T11:46:42.694Z,1984.00
2023-05-05T11:47:42.740Z,1979.00
2023-05-05T11:48:42.644Z,1995.00
2023-05-05T11:49:42.706Z,1993.00
2023-05-05T11:50:42.681Z,2001.00
2023-05-05T11:51:42.722Z,1989.00
2023-05-05T11:52:42.715Z,2004.00
2023-05-05T11:53:42.748Z,2001.00
2023-05-05T11:54:43.139Z,1989.00
2023-05-05T11:55:42.785Z,1997.00
2023-05-05T11:56:42.829Z,2001.00
2023-05-05T11:57:43.711Z,2003.00
2023-05-05T11:58:42.843Z,1991.00
2023-05-05T11:59:42.863Z,2005.00
2023-05-05T12:00:42.922Z,1999.00
2023-05-05T12:01:42.940Z,1996.00
2023-05-05T12:02:43.036Z,1998.00
2023-05-05T12:03:43.092Z,1993.00
2023-05-05T12:04:43.039Z,2003.00
2023-05-05T12:05:42.987Z,2013.00
2023-05-05T12:06:43.058Z,2007.00
2023-05-05T12:07:43.014Z,1994.00